Time;durP1;ratioP1;P1;durP2;ratioP2;P2;SDS_P1;SDS_P2;PMS_P1;PMS_P2;Temp;Humidity;BMP_temperature;BMP_pressure;BME280_temperature;BME280_humidity;BME280_pressure;Samples;Min_cycle;Max_cycle;Signal;HPM_P1;HPM_P2
2022/02/20 00:00:56;;;;;;;2.10;2.00;;;-1.40;99.90;;;;;;6261466;28;20276;-73
2022/02/20 00:04:04;;;;;;;2.13;2.03;;;-1.40;99.90;;;;;;6260903;28;20469;-73
2022/02/20 00:07:11;;;;;;;1.87;1.83;;;-1.40;99.90;;;;;;6261495;28;20272;-71
2022/02/20 00:10:18;;;;;;;1.90;1.90;;;-1.40;99.90;;;;;;6260573;28;20287;-71
2022/02/20 00:13:24;;;;;;;1.87;1.77;;;-1.40;99.90;;;;;;6260630;28;20295;-72
2022/02/20 00:16:29;;;;;;;2.00;1.90;;;-1.40;99.90;;;;;;6260755;28;20272;-72
2022/02/20 00:19:36;;;;;;;1.80;1.80;;;-1.50;99.90;;;;;;6260543;28;20320;-72
2022/02/20 00:22:42;;;;;;;2.10;2.00;;;-1.50;99.90;;;;;;6269977;28;20312;-72
2022/02/20 00:25:48;;;;;;;2.13;2.03;;;-1.40;99.90;;;;;;6285355;28;20271;-72
2022/02/20 00:28:53;;;;;;;1.60;1.60;;;-1.40;99.90;;;;;;6285778;28;20465;-73
2022/02/20 00:32:00;;;;;;;2.10;2.00;;;-1.40;99.90;;;;;;6267823;28;20450;-72
2022/02/20 00:35:09;;;;;;;1.90;1.80;;;-1.30;99.90;;;;;;6267491;28;20457;-72
2022/02/20 00:38:14;;;;;;;2.00;1.90;;;-1.30;99.90;;;;;;6285286;28;20299;-72
2022/02/20 00:41:20;;;;;;;1.80;1.80;;;-1.30;99.90;;;;;;6285055;28;20464;-73
2022/02/20 00:44:25;;;;;;;1.97;1.97;;;-1.20;99.90;;;;;;6284315;28;20300;-72
2022/02/20 00:47:31;;;;;;;1.70;1.70;;;-1.20;99.90;;;;;;6285213;28;20296;-73
2022/02/20 00:50:38;;;;;;;2.30;2.10;;;-1.20;99.90;;;;;;6285951;28;20287;-72
2022/02/20 00:53:43;;;;;;;3.10;2.20;;;-1.10;99.90;;;;;;6266627;28;20308;-72
2022/02/20 00:56:48;;;;;;;2.23;2.13;;;-1.10;99.90;;;;;;6267395;28;20279;-73
2022/02/20 00:59:54;;;;;;;1.80;1.80;;;-1.00;99.90;;;;;;6284574;28;20582;-72
2022/02/20 01:03:00;;;;;;;1.93;1.90;;;-1.00;99.90;;;;;;6284430;28;20302;-72
2022/02/20 01:06:07;;;;;;;2.17;2.00;;;-1.00;99.90;;;;;;6287550;28;20274;-72
2022/02/20 01:09:14;;;;;;;1.77;1.77;;;-0.90;99.90;;;;;;6289047;28;20302;-72
2022/02/20 01:12:20;;;;;;;2.07;2.07;;;-0.90;99.90;;;;;;6271361;28;20586;-72
2022/02/20 01:15:26;;;;;;;3.77;2.00;;;-0.90;99.90;;;;;;6272060;28;20272;-72
2022/02/20 01:18:31;;;;;;;1.87;1.87;;;-0.90;99.90;;;;;;6289195;28;20299;-72
2022/02/20 01:21:38;;;;;;;1.80;1.70;;;-0.90;99.90;;;;;;6289730;28;20271;-73
2022/02/20 01:24:47;;;;;;;1.83;1.83;;;-0.90;99.90;;;;;;6271431;28;20393;-72
2022/02/20 01:27:52;;;;;;;1.73;1.73;;;-0.90;99.90;;;;;;6289409;28;20448;-73
2022/02/20 01:30:59;;;;;;;1.80;1.80;;;-0.90;99.90;;;;;;6272341;28;20291;-72
2022/02/20 01:34:05;;;;;;;1.90;1.90;;;-0.90;99.90;;;;;;6270947;28;20305;-72
2022/02/20 01:37:15;;;;;;;1.70;1.70;;;-0.80;99.90;;;;;;6288396;28;20292;-73
2022/02/20 01:40:21;;;;;;;2.00;1.90;;;-0.80;99.90;;;;;;6271976;28;20280;-73
2022/02/20 01:43:28;;;;;;;3.37;2.33;;;-0.80;99.90;;;;;;6288655;28;20567;-72
2022/02/20 01:46:35;;;;;;;2.40;2.03;;;-0.80;99.90;;;;;;6271273;28;20451;-73
2022/02/20 01:49:43;;;;;;;2.20;2.20;;;-0.80;99.90;;;;;;6288631;28;20583;-72
2022/02/20 01:52:49;;;;;;;2.33;2.23;;;-0.70;99.90;;;;;;6270287;28;20295;-72
2022/02/20 01:55:55;;;;;;;2.60;2.50;;;-0.70;99.90;;;;;;6271114;28;20587;-72
2022/02/20 01:59:20;;;;;;;2.33;2.23;;;-0.70;99.90;;;;;;6287807;28;20311;-72
2022/02/20 02:02:46;;;;;;;2.57;2.47;;;-0.70;99.90;;;;;;6270266;28;20589;-72
2022/02/20 02:06:14;;;;;;;2.60;2.50;;;-0.70;99.90;;;;;;6288479;28;20274;-73
2022/02/20 02:09:22;;;;;;;2.80;2.70;;;-0.70;99.90;;;;;;6270120;28;20467;-72
2022/02/20 02:12:43;;;;;;;2.60;2.60;;;-0.70;99.90;;;;;;6287552;28;20300;-73
2022/02/20 02:16:07;;;;;;;2.40;2.40;;;-0.70;99.90;;;;;;6288377;28;20277;-72
2022/02/20 02:19:31;;;;;;;2.47;2.37;;;-0.70;99.90;;;;;;6287040;28;20301;-73
2022/02/20 02:23:07;;;;;;;2.63;2.43;;;-0.70;99.90;;;;;;6264069;28;20483;-72
2022/02/20 02:26:47;;;;;;;2.93;2.83;;;-0.70;99.90;;;;;;6254433;28;20272;-72
2022/02/20 02:30:13;;;;;;;3.37;2.70;;;-0.70;99.90;;;;;;6270011;28;20611;-72
2022/02/20 02:33:27;;;;;;;3.20;3.00;;;-0.60;99.90;;;;;;6269555;28;20294;-72
2022/02/20 02:36:34;;;;;;;2.80;2.67;;;-0.60;99.90;;;;;;6288118;28;20201;-72
2022/02/20 02:39:42;;;;;;;2.77;2.73;;;-0.60;99.90;;;;;;6269727;28;20473;-72
2022/02/20 02:42:47;;;;;;;3.73;3.10;;;-0.50;99.90;;;;;;6269617;28;20296;-72
2022/02/20 02:45:53;;;;;;;3.23;3.10;;;-0.50;99.90;;;;;;6270560;28;20418;-72
2022/02/20 02:49:00;;;;;;;3.40;3.20;;;-0.40;99.90;;;;;;6287235;28;20300;-72
2022/02/20 02:52:08;;;;;;;3.20;3.00;;;-0.40;99.90;;;;;;6269769;28;20292;-73
2022/02/20 02:55:20;;;;;;;3.20;2.90;;;-0.30;99.90;;;;;;6271178;28;20276;-72
2022/02/20 02:58:28;;;;;;;2.53;2.43;;;-0.30;99.90;;;;;;6269820;28;20597;-72
2022/02/20 03:01:38;;;;;;;3.10;2.90;;;-0.30;99.90;;;;;;6269285;28;20276;-73
2022/02/20 03:04:44;;;;;;;2.57;2.47;;;-0.40;99.90;;;;;;6269513;28;20301;-72
2022/02/20 03:07:50;;;;;;;3.30;3.10;;;-0.30;99.90;;;;;;6268953;28;20298;-73
2022/02/20 03:11:00;;;;;;;2.73;2.50;;;-0.30;99.90;;;;;;6269196;28;20286;-73
2022/02/20 03:14:05;;;;;;;2.50;2.40;;;-0.20;99.90;;;;;;6286305;28;20480;-72
2022/02/20 03:17:12;;;;;;;2.80;2.70;;;-0.20;99.90;;;;;;6268928;28;20277;-73
2022/02/20 03:20:18;;;;;;;3.27;2.80;;;-0.20;99.90;;;;;;6286695;28;20276;-73
2022/02/20 03:23:25;;;;;;;2.37;2.30;;;-0.20;99.90;;;;;;6268473;28;20307;-73
2022/02/20 03:26:37;;;;;;;3.03;2.83;;;-0.10;99.90;;;;;;6268803;28;20563;-73
2022/02/20 03:29:43;;;;;;;2.70;2.60;;;-0.10;99.90;;;;;;6267402;28;20289;-73
2022/02/20 03:32:48;;;;;;;2.70;2.57;;;-0.10;99.90;;;;;;6267972;28;20308;-73
2022/02/20 03:36:00;;;;;;;3.10;2.80;;;-0.10;99.90;;;;;;6284739;28;20273;-73
2022/02/20 03:39:07;;;;;;;2.70;2.60;;;-0.10;99.90;;;;;;6268727;28;20596;-73
2022/02/20 03:42:15;;;;;;;3.10;2.87;;;0.00;99.90;;;;;;6284293;28;20276;-73
2022/02/20 03:45:38;;;;;;;3.27;2.93;;;-0.10;99.90;;;;;;6268599;28;20272;-73
2022/02/20 03:48:43;;;;;;;2.90;2.80;;;0.00;99.90;;;;;;6268107;28;20300;-73
2022/02/20 03:52:15;;;;;;;3.33;3.03;;;-0.10;99.90;;;;;;6254699;28;20296;-73
2022/02/20 03:55:26;;;;;;;3.13;2.80;;;-0.10;99.90;;;;;;6269042;28;20279;-73
2022/02/20 03:58:35;;;;;;;3.37;2.97;;;-0.10;99.90;;;;;;6268546;28;20295;-73
2022/02/20 04:01:40;;;;;;;3.27;2.70;;;-0.10;99.90;;;;;;6267787;28;20268;-73
2022/02/20 04:04:46;;;;;;;3.20;2.97;;;-0.10;99.90;;;;;;6267155;28;20286;-73
2022/02/20 04:07:52;;;;;;;4.00;3.03;;;-0.10;99.90;;;;;;6285386;28;20297;-73
2022/02/20 04:11:01;;;;;;;3.03;2.80;;;-0.10;99.90;;;;;;6267965;28;20616;-73
2022/02/20 04:14:31;;;;;;;2.87;2.77;;;-0.10;99.90;;;;;;6277944;28;20293;-73
2022/02/20 04:17:46;;;;;;;3.10;2.80;;;-0.10;99.90;;;;;;6268213;28;20434;-74
2022/02/20 04:20:52;;;;;;;3.10;3.00;;;-0.20;99.90;;;;;;6267788;28;20266;-73
2022/02/20 04:23:57;;;;;;;2.70;2.50;;;-0.20;99.90;;;;;;6266931;28;20303;-73
2022/02/20 04:27:04;;;;;;;2.90;2.70;;;-0.20;99.90;;;;;;6268041;28;20271;-73
2022/02/20 04:30:21;;;;;;;2.70;2.60;;;-0.30;99.90;;;;;;6285210;28;20441;-73
2022/02/20 04:33:35;;;;;;;2.60;2.40;;;-0.30;99.90;;;;;;6267551;28;20300;-73
2022/02/20 04:36:40;;;;;;;2.93;2.83;;;-0.30;99.90;;;;;;6267619;28;20266;-72
2022/02/20 04:39:47;;;;;;;2.90;2.70;;;-0.20;99.90;;;;;;6267826;28;20296;-72
2022/02/20 04:42:54;;;;;;;2.70;2.60;;;-0.30;99.90;;;;;;6272195;28;20611;-72
2022/02/20 04:46:01;;;;;;;2.80;2.70;;;-0.30;99.90;;;;;;6272724;28;20274;-72
2022/02/20 04:49:09;;;;;;;3.23;3.00;;;-0.40;99.90;;;;;;6272186;28;20302;-72
2022/02/20 04:52:33;;;;;;;2.90;2.80;;;-0.50;99.90;;;;;;6289920;28;20584;-73
2022/02/20 04:55:56;;;;;;;3.07;2.77;;;-0.40;99.90;;;;;;6272679;28;20271;-72
2022/02/20 04:59:12;;;;;;;3.00;2.70;;;-0.40;99.90;;;;;;6272171;28;20299;-72
2022/02/20 05:02:24;;;;;;;2.77;2.63;;;-0.30;99.90;;;;;;6271907;28;20301;-73
2022/02/20 05:05:31;;;;;;;2.50;2.43;;;-0.30;99.90;;;;;;6272316;28;20272;-73
2022/02/20 05:08:37;;;;;;;3.13;2.90;;;-0.30;99.90;;;;;;6271945;28;20296;-72
2022/02/20 05:11:42;;;;;;;3.27;3.07;;;-0.30;99.90;;;;;;6271853;28;20298;-72
2022/02/20 05:14:50;;;;;;;2.63;2.63;;;-0.30;99.90;;;;;;6271799;28;20293;-72
2022/02/20 05:18:18;;;;;;;3.03;2.60;;;-0.30;99.90;;;;;;6273257;28;20300;-72
2022/02/20 05:21:24;;;;;;;2.70;2.50;;;-0.30;99.90;;;;;;6271706;28;20271;-72
2022/02/20 05:24:29;;;;;;;2.60;2.50;;;-0.30;99.90;;;;;;6264655;28;20471;-72
2022/02/20 05:27:35;;;;;;;2.37;2.37;;;-0.40;99.90;;;;;;6246235;28;20630;-72
2022/02/20 05:30:42;;;;;;;2.83;2.50;;;-0.40;99.90;;;;;;6246811;28;20276;-72
2022/02/20 05:33:57;;;;;;;2.60;2.50;;;-0.40;99.90;;;;;;6246248;28;20313;-72
2022/02/20 05:37:03;;;;;;;2.40;2.40;;;-0.40;99.90;;;;;;6264121;28;20274;-73
2022/02/20 05:40:21;;;;;;;2.77;2.67;;;-0.40;99.90;;;;;;6246243;28;20276;-73
2022/02/20 05:43:41;;;;;;;2.60;2.50;;;-0.50;99.90;;;;;;6246022;28;20302;-72
2022/02/20 05:46:49;;;;;;;3.00;2.80;;;-0.60;99.90;;;;;;6246714;28;20275;-73
2022/02/20 05:49:57;;;;;;;2.90;2.53;;;-0.60;99.90;;;;;;6245673;28;20294;-73
2022/02/20 05:53:02;;;;;;;3.17;3.07;;;-0.50;99.90;;;;;;6244978;28;20300;-72
2022/02/20 05:56:12;;;;;;;2.50;2.50;;;-0.60;99.90;;;;;;6246593;28;20342;-72
2022/02/20 05:59:30;;;;;;;2.67;2.57;;;-0.60;99.90;;;;;;6245487;28;20295;-72
2022/02/20 06:02:37;;;;;;;3.20;3.00;;;-0.60;99.90;;;;;;6245715;28;20295;-73
2022/02/20 06:05:44;;;;;;;3.20;2.97;;;-0.70;99.90;;;;;;6245954;28;20303;-72
2022/02/20 06:09:04;;;;;;;3.23;3.13;;;-0.60;99.90;;;;;;6245741;28;20301;-72
2022/02/20 06:12:18;;;;;;;3.50;3.30;;;-0.60;99.90;;;;;;6245277;28;20264;-73
2022/02/20 06:15:47;;;;;;;3.40;3.20;;;-0.60;99.90;;;;;;6245596;28;20278;-72
2022/02/20 06:18:59;;;;;;;2.97;2.83;;;-0.60;99.90;;;;;;6263006;28;20303;-73
2022/02/20 06:22:16;;;;;;;2.70;2.60;;;-0.60;99.90;;;;;;6250860;28;20306;-73
2022/02/20 06:25:24;;;;;;;3.00;2.90;;;-0.70;99.90;;;;;;6287929;28;20449;-72
2022/02/20 06:28:35;;;;;;;2.63;2.57;;;-0.60;99.90;;;;;;6269397;28;20300;-72
2022/02/20 06:31:41;;;;;;;3.27;2.97;;;-0.60;99.90;;;;;;6270126;28;20277;-72
2022/02/20 06:34:47;;;;;;;3.00;2.83;;;-0.60;99.90;;;;;;6285836;28;20309;-72
2022/02/20 06:37:54;;;;;;;3.10;3.00;;;-0.70;99.90;;;;;;6287583;28;20603;-72
2022/02/20 06:41:01;;;;;;;2.70;2.60;;;-0.70;99.90;;;;;;6270340;28;20276;-72
2022/02/20 06:44:22;;;;;;;2.83;2.77;;;-0.70;99.90;;;;;;6269715;28;20299;-73
2022/02/20 06:47:33;;;;;;;2.70;2.70;;;-0.80;99.90;;;;;;6287026;28;20306;-73
2022/02/20 06:50:57;;;;;;;3.00;2.90;;;-0.80;99.90;;;;;;6287809;28;20276;-72
2022/02/20 06:54:16;;;;;;;2.83;2.73;;;-0.70;99.90;;;;;;6287214;28;20307;-73
2022/02/20 06:57:36;;;;;;;3.33;2.97;;;-0.80;99.90;;;;;;6268467;28;20299;-72
2022/02/20 07:00:42;;;;;;;2.93;2.73;;;-0.70;99.90;;;;;;6287467;28;20277;-72
2022/02/20 07:03:47;;;;;;;2.73;2.63;;;-0.70;99.90;;;;;;6286127;28;20298;-72
2022/02/20 07:06:54;;;;;;;2.87;2.77;;;-0.70;99.90;;;;;;6286508;28;20271;-72
2022/02/20 07:10:03;;;;;;;2.53;2.43;;;-0.80;99.90;;;;;;6280810;28;20288;-72
2022/02/20 07:13:09;;;;;;;3.03;3.00;;;-0.70;99.90;;;;;;6286115;28;20291;-72
2022/02/20 07:16:15;;;;;;;4.07;2.90;;;-0.70;99.90;;;;;;6286761;28;20275;-72
2022/02/20 07:19:24;;;;;;;2.40;2.40;;;-0.70;99.90;;;;;;6286161;28;20304;-73
2022/02/20 07:22:29;;;;;;;2.67;2.50;;;-0.80;99.90;;;;;;6286350;28;20300;-73
2022/02/20 07:25:36;;;;;;;2.60;2.60;;;-0.80;99.90;;;;;;6287154;28;20279;-72
2022/02/20 07:28:41;;;;;;;2.90;2.70;;;-0.70;99.90;;;;;;6286118;28;20298;-72
2022/02/20 07:31:46;;;;;;;2.53;2.50;;;-0.70;99.90;;;;;;6285906;28;20274;-72
2022/02/20 07:34:52;;;;;;;2.20;2.20;;;-0.70;99.90;;;;;;6286737;28;20302;-73
2022/02/20 07:37:58;;;;;;;2.10;2.10;;;-0.70;99.90;;;;;;6285852;28;20299;-72
2022/02/20 07:41:04;;;;;;;2.57;2.47;;;-0.60;99.90;;;;;;6286835;28;20452;-73
2022/02/20 07:44:12;;;;;;;2.73;2.40;;;-0.60;99.90;;;;;;6286342;28;20299;-73
2022/02/20 07:47:17;;;;;;;3.10;2.90;;;-0.60;99.90;;;;;;6285748;28;20292;-73
2022/02/20 07:50:24;;;;;;;2.57;2.47;;;-0.60;99.90;;;;;;6286864;28;20275;-73
2022/02/20 07:53:30;;;;;;;2.80;2.70;;;-0.60;99.90;;;;;;6286014;28;20300;-72
2022/02/20 07:56:38;;;;;;;2.37;2.37;;;-0.50;99.90;;;;;;6285519;28;20277;-72
2022/02/20 07:59:44;;;;;;;2.00;2.00;;;-0.50;99.90;;;;;;6286333;28;20304;-72
2022/02/20 08:02:50;;;;;;;2.17;2.07;;;-0.60;99.90;;;;;;6285889;28;20304;-72
2022/02/20 08:05:55;;;;;;;2.70;2.60;;;-0.70;99.90;;;;;;6286485;28;20275;-72
2022/02/20 08:09:03;;;;;;;2.10;2.10;;;-0.70;99.90;;;;;;6285658;28;20347;-72
2022/02/20 08:12:11;;;;;;;2.10;2.10;;;-0.60;99.90;;;;;;6285047;28;20465;-73
2022/02/20 08:15:17;;;;;;;2.10;2.10;;;-0.40;99.90;;;;;;6287262;28;20295;-73
2022/02/20 08:18:23;;;;;;;2.20;2.10;;;-0.40;99.90;;;;;;6290234;28;20299;-73
2022/02/20 08:21:28;;;;;;;1.93;1.93;;;-0.40;99.90;;;;;;6291533;28;20559;-73
2022/02/20 08:24:34;;;;;;;2.33;2.30;;;-0.50;99.90;;;;;;6290790;28;20299;-73
2022/02/20 08:27:41;;;;;;;1.90;1.90;;;-0.50;99.90;;;;;;6290580;28;20298;-73
2022/02/20 08:30:47;;;;;;;1.97;1.97;;;-0.40;99.90;;;;;;6273006;28;20439;-73
2022/02/20 08:33:53;;;;;;;1.70;1.70;;;-0.40;99.90;;;;;;6289898;28;20456;-73
2022/02/20 08:37:00;;;;;;;1.53;1.53;;;-0.40;99.90;;;;;;6291073;28;20272;-73
2022/02/20 08:40:06;;;;;;;2.00;2.00;;;-0.40;99.90;;;;;;6290212;28;20282;-73
2022/02/20 08:43:15;;;;;;;1.73;1.63;;;-0.40;99.90;;;;;;6290157;28;20303;-73
2022/02/20 08:46:21;;;;;;;1.80;1.80;;;-0.30;99.90;;;;;;6290635;28;20303;-73
2022/02/20 08:49:26;;;;;;;1.70;1.70;;;-0.40;99.90;;;;;;6289668;28;20483;-73
2022/02/20 08:52:31;;;;;;;1.60;1.60;;;-0.30;99.90;;;;;;6289645;28;20478;-73
2022/02/20 08:55:37;;;;;;;1.77;1.77;;;-0.30;99.90;;;;;;6290627;28;20288;-73
2022/02/20 08:58:43;;;;;;;1.60;1.60;;;-0.40;99.90;;;;;;6290091;28;20479;-73
2022/02/20 09:01:49;;;;;;;1.70;1.70;;;-0.30;99.90;;;;;;6290272;28;20278;-73
2022/02/20 09:04:54;;;;;;;2.00;1.90;;;-0.30;99.90;;;;;;6289687;28;20298;-73
2022/02/20 09:08:00;;;;;;;1.63;1.63;;;-0.40;99.90;;;;;;6288929;28;20302;-73
2022/02/20 09:11:06;;;;;;;1.83;1.83;;;-0.30;99.90;;;;;;6288969;28;20360;-73
2022/02/20 09:14:12;;;;;;;1.73;1.60;;;-0.30;99.90;;;;;;6288812;28;20296;-73
2022/02/20 09:17:20;;;;;;;1.80;1.80;;;-0.40;99.90;;;;;;6289108;28;20535;-73
2022/02/20 09:20:26;;;;;;;1.60;1.60;;;-0.20;99.90;;;;;;6289548;28;20279;-73
2022/02/20 09:23:31;;;;;;;2.03;1.80;;;-0.10;99.90;;;;;;6272537;28;20301;-73
2022/02/20 09:26:37;;;;;;;2.07;1.97;;;0.00;99.90;;;;;;6264102;28;20272;-74
2022/02/20 09:29:43;;;;;;;1.60;1.60;;;0.00;99.90;;;;;;6264319;28;20300;-74
2022/02/20 09:32:49;;;;;;;1.60;1.50;;;0.10;99.90;;;;;;6246346;28;20295;-72
2022/02/20 09:35:54;;;;;;;1.60;1.60;;;0.10;99.90;;;;;;6264899;28;20296;-70
2022/02/20 09:39:00;;;;;;;1.80;1.80;;;0.30;99.90;;;;;;6264185;28;20296;-73
2022/02/20 09:42:06;;;;;;;1.57;1.47;;;0.40;99.90;;;;;;6263285;28;20274;-74
2022/02/20 09:45:14;;;;;;;1.90;1.90;;;0.40;99.90;;;;;;6264492;28;20553;-73
2022/02/20 09:48:20;;;;;;;1.63;1.63;;;0.40;99.90;;;;;;6262988;28;20299;-71
2022/02/20 09:51:26;;;;;;;2.53;1.50;;;0.40;99.90;;;;;;6263588;28;20272;-72
2022/02/20 09:54:31;;;;;;;1.73;1.67;;;0.50;99.90;;;;;;6263473;28;20302;-72
2022/02/20 09:57:39;;;;;;;1.60;1.60;;;0.40;99.90;;;;;;6263797;28;20300;-74
2022/02/20 10:00:56;;;;;;;2.03;1.47;;;0.60;99.90;;;;;;6264220;28;20277;-73
2022/02/20 10:04:12;;;;;;;1.77;1.60;;;0.50;99.90;;;;;;6263524;28;20293;-74
2022/02/20 10:07:30;;;;;;;1.60;1.60;;;0.40;99.90;;;;;;6263418;28;20272;-74
2022/02/20 10:10:35;;;;;;;1.60;1.60;;;0.60;99.90;;;;;;6263759;28;20265;-74
2022/02/20 10:13:40;;;;;;;1.70;1.70;;;0.50;99.90;;;;;;6263488;28;20303;-72
2022/02/20 10:16:47;;;;;;;1.90;1.80;;;0.60;99.90;;;;;;6263965;28;20292;-74
2022/02/20 10:20:14;;;;;;;1.90;1.77;;;0.70;99.90;;;;;;6263174;28;20443;-72
2022/02/20 10:23:47;;;;;;;2.27;1.60;;;0.80;99.90;;;;;;6248884;28;20300;-72
2022/02/20 10:27:11;;;;;;;1.73;1.73;;;0.70;99.90;;;;;;6287557;28;20298;-73
2022/02/20 10:30:35;;;;;;;2.63;1.73;;;0.80;99.90;;;;;;6288387;28;20284;-73
2022/02/20 10:33:42;;;;;;;1.90;1.80;;;0.80;99.90;;;;;;6287157;28;20320;-73
2022/02/20 10:36:54;;;;;;;2.60;1.90;;;0.80;99.90;;;;;;6287921;28;20294;-72
2022/02/20 10:39:59;;;;;;;2.10;1.90;;;0.90;99.90;;;;;;6287488;28;20304;-71
2022/02/20 10:43:08;;;;;;;2.40;1.70;;;0.80;99.90;;;;;;6286161;28;20292;-72
2022/02/20 10:46:16;;;;;;;1.90;1.90;;;0.80;99.90;;;;;;6286734;28;20273;-72
2022/02/20 10:49:26;;;;;;;1.90;1.83;;;1.00;99.90;;;;;;6287172;28;20305;-72
2022/02/20 10:52:32;;;;;;;2.03;1.93;;;1.10;99.90;;;;;;6286318;28;20290;-73
2022/02/20 10:55:40;;;;;;;1.70;1.70;;;1.00;99.90;;;;;;6286652;28;20274;-73
2022/02/20 10:58:49;;;;;;;1.77;1.77;;;0.90;99.90;;;;;;6286710;28;20600;-73
2022/02/20 11:01:54;;;;;;;1.93;1.87;;;0.90;99.90;;;;;;6287520;28;20274;-73
2022/02/20 11:05:02;;;;;;;2.03;1.93;;;0.80;99.90;;;;;;6286179;28;20299;-73
2022/02/20 11:08:13;;;;;;;1.87;1.77;;;0.70;99.90;;;;;;6286166;28;20484;-73
2022/02/20 11:14:42;;;;;;;3.30;1.83;;;0.60;99.90;;;;;;6285843;28;20297;-73
2022/02/20 11:17:48;;;;;;;1.70;1.70;;;0.70;99.90;;;;;;6286992;28;20300;-73
2022/02/20 11:20:55;;;;;;;1.83;1.83;;;0.60;99.90;;;;;;6286526;28;20274;-73
2022/02/20 11:24:01;;;;;;;2.80;1.80;;;0.60;99.90;;;;;;6286083;28;20303;-73
2022/02/20 11:27:07;;;;;;;2.40;1.80;;;0.60;99.90;;;;;;6286350;28;20297;-73
2022/02/20 11:30:13;;;;;;;2.30;1.80;;;0.60;99.90;;;;;;6286571;28;20282;-72
2022/02/20 11:33:20;;;;;;;2.00;1.80;;;0.60;99.90;;;;;;6286254;28;20297;-73
2022/02/20 11:36:30;;;;;;;2.87;1.50;;;0.60;99.90;;;;;;6286264;28;20275;-72
2022/02/20 11:39:35;;;;;;;2.07;1.87;;;0.60;99.90;;;;;;6285812;28;20315;-72
2022/02/20 11:43:10;;;;;;;2.00;1.90;;;0.60;99.90;;;;;;6286190;28;20295;-72
2022/02/20 11:46:16;;;;;;;4.00;1.97;;;0.60;99.90;;;;;;6286114;28;20273;-72
2022/02/20 11:49:27;;;;;;;6.77;2.23;;;0.60;99.90;;;;;;6285004;28;20293;-72
2022/02/20 11:52:48;;;;;;;2.77;1.80;;;0.60;99.90;;;;;;6285252;28;20294;-72
2022/02/20 11:56:03;;;;;;;2.13;1.90;;;0.60;99.90;;;;;;6285728;28;20270;-72
2022/02/20 11:59:19;;;;;;;1.70;1.60;;;0.70;99.90;;;;;;6285136;28;20306;-72
2022/02/20 12:02:24;;;;;;;1.73;1.73;;;0.60;99.90;;;;;;6285072;28;20288;-72
2022/02/20 12:05:31;;;;;;;1.67;1.67;;;0.70;99.90;;;;;;6285438;28;20272;-72
2022/02/20 12:08:42;;;;;;;2.10;1.93;;;0.70;99.90;;;;;;6285615;28;20305;-72
2022/02/20 12:11:49;;;;;;;2.73;1.83;;;0.70;99.90;;;;;;6285984;28;20445;-72
2022/02/20 12:15:25;;;;;;;1.73;1.73;;;0.70;99.90;;;;;;6285983;28;20310;-72
2022/02/20 12:18:33;;;;;;;3.23;1.50;;;0.80;99.90;;;;;;6285470;28;20302;-72
2022/02/20 12:22:03;;;;;;;1.77;1.67;;;0.80;99.90;;;;;;6286129;28;20441;-72
2022/02/20 12:25:10;;;;;;;1.93;1.77;;;0.80;99.90;;;;;;6285188;28;20281;-73
2022/02/20 12:28:15;;;;;;;1.63;1.53;;;0.80;99.90;;;;;;6284672;28;20496;-73
2022/02/20 12:31:31;;;;;;;1.90;1.80;;;0.80;99.90;;;;;;6286390;28;20273;-74
2022/02/20 12:35:13;;;;;;;1.40;1.40;;;0.90;99.90;;;;;;6285102;28;20302;-73
2022/02/20 12:38:18;;;;;;;1.40;1.40;;;0.90;99.90;;;;;;6285217;28;20489;-72
2022/02/20 12:41:26;;;;;;;1.63;1.53;;;1.00;99.90;;;;;;6285090;28;20278;-72
2022/02/20 12:44:32;;;;;;;1.50;1.50;;;1.00;99.90;;;;;;6284772;28;20306;-72
2022/02/20 12:47:40;;;;;;;1.53;1.53;;;1.10;99.90;;;;;;6267329;28;20302;-72
2022/02/20 12:50:48;;;;;;;2.63;1.70;;;1.10;99.90;;;;;;6286049;28;20277;-72
2022/02/20 12:53:54;;;;;;;4.77;1.90;;;1.10;99.90;;;;;;6285218;28;20306;-72
2022/02/20 12:57:10;;;;;;;3.17;1.40;;;1.10;99.90;;;;;;6285334;28;20274;-73
2022/02/20 13:00:17;;;;;;;1.57;1.50;;;1.00;99.90;;;;;;6285293;28;20290;-72
2022/02/20 13:03:26;;;;;;;2.83;1.50;;;1.00;99.90;;;;;;6289783;28;20294;-72
2022/02/20 13:06:38;;;;;;;1.40;1.40;;;1.00;99.90;;;;;;6289422;28;20274;-72
2022/02/20 13:09:43;;;;;;;1.60;1.50;;;1.00;99.90;;;;;;6288892;28;20482;-73
2022/02/20 13:13:10;;;;;;;2.30;1.60;;;1.10;99.90;;;;;;6289571;28;20301;-72
2022/02/20 13:16:17;;;;;;;1.27;1.27;;;1.10;99.90;;;;;;6289631;28;20457;-72
2022/02/20 13:19:36;;;;;;;4.80;1.30;;;1.20;99.90;;;;;;6288926;28;20322;-72
2022/02/20 13:22:41;;;;;;;1.40;1.40;;;1.20;99.90;;;;;;6289022;28;20302;-72
2022/02/20 13:25:48;;;;;;;1.97;1.23;;;1.10;99.90;;;;;;6289556;28;20274;-72
2022/02/20 13:28:57;;;;;;;1.83;1.13;;;1.20;99.90;;;;;;6287311;28;20306;-72
2022/02/20 13:32:03;;;;;;;1.10;1.10;;;1.10;99.90;;;;;;6288629;28;20278;-73
2022/02/20 13:35:09;;;;;;;2.37;1.27;;;1.20;99.90;;;;;;6288610;28;20283;-72
2022/02/20 13:38:19;;;;;;;2.57;1.30;;;1.20;99.90;;;;;;6287869;28;20302;-72
2022/02/20 13:41:24;;;;;;;1.47;1.30;;;1.20;99.90;;;;;;6289611;28;20570;-72
2022/02/20 13:44:34;;;;;;;2.13;1.37;;;1.20;99.90;;;;;;6288954;28;20298;-72
2022/02/20 13:47:40;;;;;;;1.30;1.30;;;1.30;99.90;;;;;;6288677;28;20296;-72
2022/02/20 13:50:45;;;;;;;10.60;1.50;;;1.20;99.90;;;;;;6286708;28;20806;-72
2022/02/20 13:53:59;;;;;;;1.30;1.30;;;1.30;99.90;;;;;;6288449;28;20290;-72
2022/02/20 13:57:06;;;;;;;1.60;1.50;;;1.30;99.90;;;;;;6287621;28;20272;-73
2022/02/20 14:00:15;;;;;;;1.77;1.73;;;1.30;99.90;;;;;;6288555;28;20299;-72
2022/02/20 14:03:21;;;;;;;2.70;1.67;;;1.30;99.90;;;;;;6280085;28;20798;-72
2022/02/20 14:06:27;;;;;;;1.57;1.47;;;1.30;99.90;;;;;;6289133;28;20272;-72
2022/02/20 14:09:33;;;;;;;1.23;1.13;;;1.30;99.90;;;;;;6286549;28;20305;-73
2022/02/20 14:12:41;;;;;;;1.30;1.27;;;1.30;99.90;;;;;;6281520;28;20961;-72
2022/02/20 14:15:58;;;;;;;1.20;1.20;;;1.30;99.90;;;;;;6288773;28;20684;-72
2022/02/20 14:19:07;;;;;;;1.60;1.20;;;1.20;99.90;;;;;;6287713;28;20295;-72
2022/02/20 14:22:13;;;;;;;2.20;1.47;;;1.20;99.90;;;;;;6287746;28;20299;-73
2022/02/20 14:25:19;;;;;;;1.30;1.30;;;1.20;99.90;;;;;;6288246;28;20272;-72
2022/02/20 14:28:27;;;;;;;3.47;1.27;;;1.10;99.90;;;;;;6287625;28;20303;-74
2022/02/20 14:31:37;;;;;;;1.03;1.03;;;1.10;99.90;;;;;;6287991;28;20459;-73
2022/02/20 14:34:43;;;;;;;1.20;1.10;;;1.10;99.90;;;;;;6287913;28;20473;-73
2022/02/20 14:37:56;;;;;;;2.00;1.30;;;1.10;99.90;;;;;;6287157;28;20298;-72
2022/02/20 14:41:01;;;;;;;1.90;1.37;;;1.10;99.90;;;;;;6287265;28;20298;-71
2022/02/20 14:44:07;;;;;;;1.40;1.20;;;1.00;99.90;;;;;;6286873;28;20298;-73
2022/02/20 14:47:14;;;;;;;1.53;1.53;;;1.00;99.90;;;;;;6287280;28;20271;-73
2022/02/20 14:50:20;;;;;;;2.73;1.40;;;0.90;99.90;;;;;;6287624;28;20273;-72
2022/02/20 14:53:25;;;;;;;1.20;1.20;;;1.00;99.90;;;;;;6286798;28;20298;-73
2022/02/20 14:56:31;;;;;;;4.70;1.40;;;0.90;99.90;;;;;;6286861;28;20274;-73
2022/02/20 14:59:41;;;;;;;1.60;1.50;;;0.80;99.90;;;;;;6287202;28;20310;-73
2022/02/20 15:02:48;;;;;;;1.20;1.20;;;0.90;99.90;;;;;;6287009;28;20294;-73
2022/02/20 15:05:53;;;;;;;1.43;1.27;;;0.80;99.90;;;;;;6287181;28;20274;-73
2022/02/20 15:08:59;;;;;;;1.83;1.20;;;0.80;99.90;;;;;;6286902;28;20460;-72
2022/02/20 15:12:05;;;;;;;1.40;1.37;;;0.70;99.90;;;;;;6286816;28;20269;-73
2022/02/20 15:15:13;;;;;;;2.97;1.20;;;0.70;99.90;;;;;;6286496;28;20279;-71
2022/02/20 15:18:23;;;;;;;1.53;1.10;;;0.70;99.90;;;;;;6285936;28;20298;-72
2022/02/20 15:21:29;;;;;;;2.20;1.23;;;0.70;99.90;;;;;;6286901;28;20302;-72
2022/02/20 15:24:34;;;;;;;1.50;1.40;;;0.70;99.90;;;;;;6286228;28;20294;-72
2022/02/20 15:27:40;;;;;;;1.63;1.30;;;0.60;99.90;;;;;;6286479;28;20309;-72
2022/02/20 15:30:45;;;;;;;1.23;1.23;;;0.60;99.90;;;;;;6287103;28;20277;-72
2022/02/20 15:33:52;;;;;;;1.70;1.33;;;0.50;99.90;;;;;;6286010;28;20302;-72
2022/02/20 15:36:58;;;;;;;1.80;1.50;;;0.50;99.90;;;;;;6286848;28;20270;-72
2022/02/20 15:40:04;;;;;;;1.57;1.47;;;0.40;99.90;;;;;;6285631;28;20308;-72
2022/02/20 15:43:09;;;;;;;1.90;1.40;;;0.40;99.90;;;;;;6285998;28;20297;-72
2022/02/20 15:46:15;;;;;;;1.57;1.47;;;0.40;99.90;;;;;;6286000;28;20269;-72
2022/02/20 15:49:22;;;;;;;1.50;1.40;;;0.30;99.90;;;;;;6285861;28;20305;-74
2022/02/20 15:52:28;;;;;;;1.60;1.50;;;0.30;99.90;;;;;;6285919;28;20310;-74
2022/02/20 15:55:33;;;;;;;6.30;1.57;;;0.20;99.90;;;;;;6286740;28;20440;-74
2022/02/20 15:58:38;;;;;;;1.10;1.10;;;0.20;99.90;;;;;;6286016;28;20301;-73
2022/02/20 16:01:44;;;;;;;1.73;1.50;;;0.20;99.90;;;;;;6285972;28;20627;-72
2022/02/20 16:04:50;;;;;;;3.50;1.63;;;0.10;99.90;;;;;;6285426;28;20293;-72
2022/02/20 16:07:55;;;;;;;1.63;1.40;;;0.10;99.90;;;;;;6285862;28;20596;-72
2022/02/20 16:11:03;;;;;;;4.17;1.60;;;0.10;99.90;;;;;;6286394;28;20449;-72
2022/02/20 16:14:08;;;;;;;4.53;1.77;;;0.10;99.90;;;;;;6285779;28;20301;-72
2022/02/20 16:17:15;;;;;;;1.63;1.60;;;0.10;99.90;;;;;;6285946;28;20419;-72
2022/02/20 16:20:22;;;;;;;1.57;1.40;;;0.00;99.90;;;;;;6285636;28;20598;-72
2022/02/20 16:23:29;;;;;;;1.90;1.50;;;0.00;99.90;;;;;;6269756;28;20596;-72
2022/02/20 16:26:36;;;;;;;1.90;1.53;;;0.00;99.90;;;;;;6260739;28;20426;-72
2022/02/20 16:29:41;;;;;;;4.17;1.60;;;-0.10;99.90;;;;;;6261128;28;20298;-72
2022/02/20 16:32:46;;;;;;;1.57;1.47;;;-0.10;99.90;;;;;;6260776;28;20301;-72